Time;durP1;ratioP1;P1;durP2;ratioP2;P2;SDS_P1;SDS_P2;PMS_P1;PMS_P2;Temp;Humidity;BMP_temperature;BMP_pressure;BME280_temperature;BME280_humidity;BME280_pressure;Samples;Min_cycle;Max_cycle;Signal;HPM_P1;HPM_P2
2022/02/20 00:01:55;;;;;;;34.05;15.13;;;2.20;99.90;;;;;;21080348;28;20027;-47
2022/02/20 00:11:57;;;;;;;41.25;16.48;;;1.80;99.90;;;;;;21079095;28;20072;-47
2022/02/20 00:22:00;;;;;;;38.10;15.57;;;1.50;99.90;;;;;;21078642;28;20568;-47
2022/02/20 00:32:02;;;;;;;49.20;20.27;;;1.30;99.90;;;;;;21077612;28;20406;-47
2022/02/20 00:42:05;;;;;;;53.67;22.05;;;1.10;99.90;;;;;;21076585;28;20044;-47
2022/02/20 00:52:08;;;;;;;46.38;18.85;;;1.30;99.90;;;;;;21076822;28;20097;-47
2022/02/20 01:02:15;;;;;;;46.45;18.20;;;1.30;99.90;;;;;;21075637;28;20483;-46
2022/02/20 01:12:18;;;;;;;33.50;15.07;;;1.20;99.90;;;;;;21074691;28;20101;-47
2022/02/20 01:22:21;;;;;;;47.25;21.77;;;1.20;99.90;;;;;;21073847;28;20065;-46
2022/02/20 01:32:24;;;;;;;52.80;21.48;;;1.20;99.90;;;;;;21073184;28;20723;-49
2022/02/20 01:42:26;;;;;;;55.30;23.95;;;1.10;99.90;;;;;;21072077;28;20028;-47
2022/02/20 01:52:30;;;;;;;45.95;18.38;;;0.90;99.90;;;;;;21070762;28;20499;-47
2022/02/20 02:02:39;;;;;;;54.97;23.23;;;0.90;99.90;;;;;;21055371;28;20036;-47
2022/02/20 02:12:58;;;;;;;40.43;16.90;;;1.10;99.90;;;;;;21070002;28;20463;-46
2022/02/20 02:23:18;;;;;;;37.70;16.25;;;1.00;99.90;;;;;;21070220;28;20687;-48
2022/02/20 02:33:57;;;;;;;59.30;22.35;;;0.60;99.90;;;;;;20926350;28;20071;-47
2022/02/20 02:44:00;;;;;;;47.58;19.38;;;0.40;99.90;;;;;;20908917;28;20097;-47
2022/02/20 02:54:09;;;;;;;44.30;17.65;;;0.30;99.90;;;;;;20924308;28;20134;-47
2022/02/20 03:04:16;;;;;;;;;;;0.20;99.90;;;;;;20975270;28;20040;-46
2022/02/20 03:14:20;;;;;;;40.03;17.90;;;0.20;99.90;;;;;;21066273;28;19908;-48
2022/02/20 03:24:24;;;;;;;67.45;25.88;;;0.20;99.90;;;;;;21065605;28;20031;-47
2022/02/20 03:34:29;;;;;;;61.78;24.85;;;0.10;99.90;;;;;;21065719;28;20040;-48
2022/02/20 03:44:35;;;;;;;51.30;20.40;;;0.20;99.90;;;;;;21065290;28;20044;-47
2022/02/20 03:54:55;;;;;;;55.40;20.80;;;0.40;99.90;;;;;;21066515;28;20114;-46
2022/02/20 04:05:01;;;;;;;55.58;21.63;;;0.20;99.90;;;;;;21048061;28;20540;-48
2022/02/20 04:15:08;;;;;;;63.28;22.88;;;0.10;99.90;;;;;;21063569;28;20043;-51
2022/02/20 04:25:13;;;;;;;55.38;21.77;;;0.10;99.90;;;;;;21077777;28;20036;-47
2022/02/20 04:35:16;;;;;;;50.22;19.65;;;-0.10;99.90;;;;;;21077556;28;20036;-48
2022/02/20 04:45:19;;;;;;;45.92;17.58;;;-0.20;99.90;;;;;;21077004;28;20028;-49
2022/02/20 04:55:23;;;;;;;39.55;17.77;;;-0.20;99.90;;;;;;21075574;28;20117;-47
2022/02/20 05:05:27;;;;;;;40.45;16.40;;;-0.20;99.90;;;;;;21075273;28;20479;-47
2022/02/20 05:15:33;;;;;;;60.85;23.67;;;-0.40;99.90;;;;;;21074866;28;20093;-49
2022/02/20 05:25:38;;;;;;;55.33;20.73;;;-0.30;99.90;;;;;;21056929;28;20351;-47
2022/02/20 05:35:41;;;;;;;47.90;19.55;;;0.20;99.90;;;;;;21071932;28;20043;-48
2022/02/20 05:45:45;;;;;;;45.60;18.73;;;0.00;99.90;;;;;;21073415;28;20096;-48
2022/02/20 05:55:54;;;;;;;48.15;19.75;;;-0.10;99.90;;;;;;21071143;28;20459;-47
2022/02/20 06:06:00;;;;;;;53.03;20.83;;;-0.20;99.90;;;;;;21053666;28;20399;-47
2022/02/20 06:16:38;;;;;;;47.50;19.08;;;0.10;99.90;;;;;;20998610;28;20082;-48
2022/02/20 06:27:16;;;;;;;51.67;21.80;;;0.40;99.90;;;;;;20706960;28;20453;-47
2022/02/20 06:37:20;;;;;;;48.47;20.95;;;0.50;99.90;;;;;;20729345;28;20108;-48
2022/02/20 06:47:24;;;;;;;35.60;15.82;;;0.50;99.90;;;;;;20756873;28;20444;-49
2022/02/20 06:57:56;;;;;;;34.33;14.95;;;0.40;99.90;;;;;;20919717;28;20056;-50
2022/02/20 07:07:59;;;;;;;29.67;13.73;;;0.50;99.90;;;;;;21066866;28;20028;-48
2022/02/20 07:18:04;;;;;;;31.00;12.88;;;0.40;99.90;;;;;;21066377;28;20036;-48
2022/02/20 07:28:06;;;;;;;30.08;11.85;;;0.50;99.90;;;;;;21049452;28;20036;-48
2022/02/20 07:38:09;;;;;;;30.50;13.32;;;0.80;99.90;;;;;;21065259;28;20032;-47
2022/02/20 07:48:12;;;;;;;32.47;12.82;;;1.10;99.90;;;;;;21064596;28;20105;-46
2022/02/20 07:58:17;;;;;;;28.08;13.13;;;1.80;99.90;;;;;;21076811;28;20395;-46
2022/02/20 08:08:22;;;;;;;27.08;12.65;;;2.80;99.90;;;;;;21080308;28;20395;-46
2022/02/20 08:18:26;;;;;;;30.70;14.10;;;3.80;99.90;;;;;;21079617;28;20093;-46
2022/02/20 08:28:28;;;;;;;29.88;14.52;;;4.70;99.90;;;;;;21078349;28;20445;-47
2022/02/20 08:38:31;;;;;;;32.45;14.35;;;5.70;99.90;;;;;;21061504;28;20274;-48
2022/02/20 08:48:36;;;;;;;27.88;13.30;;;6.40;99.90;;;;;;21075540;28;20036;-47
2022/02/20 08:58:38;;;;;;;25.10;12.15;;;7.30;99.90;;;;;;21076026;28;20036;-47
2022/02/20 09:08:41;;;;;;;22.38;12.63;;;8.40;99.90;;;;;;21073966;28;20089;-47
2022/02/20 09:18:45;;;;;;;22.90;12.07;;;9.00;99.90;;;;;;21073975;28;20066;-47
2022/02/20 09:28:48;;;;;;;21.00;11.63;;;9.50;99.90;;;;;;21074473;28;20465;-48
2022/02/20 09:38:50;;;;;;;21.92;12.45;;;9.90;99.90;;;;;;21072946;28;20391;-48
2022/02/20 09:48:56;;;;;;;23.95;13.20;;;10.40;99.90;;;;;;21071702;28;20036;-48
2022/02/20 09:58:59;;;;;;;26.42;15.57;;;10.50;99.90;;;;;;21071216;28;20548;-49
2022/02/20 10:09:02;;;;;;;26.40;13.48;;;11.00;99.90;;;;;;21069657;28;20070;-53
2022/02/20 10:19:05;;;;;;;21.23;12.52;;;11.90;99.90;;;;;;21068357;28;20093;-50
2022/02/20 10:30:10;;;;;;;22.40;12.07;;;13.30;99.90;;;;;;20793713;28;20440;-48
2022/02/20 10:40:30;;;;;;;23.40;13.52;;;13.50;98.60;;;;;;20810230;28;20037;-49
2022/02/20 10:50:33;;;;;;;20.88;13.35;;;12.00;99.90;;;;;;20792186;28;20107;-51
2022/02/20 11:00:44;;;;;;;24.75;13.55;;;12.10;99.90;;;;;;21021423;28;20564;-52
2022/02/20 11:10:48;;;;;;;28.25;17.05;;;12.50;99.90;;;;;;21063580;28;20036;-55
2022/02/20 11:20:52;;;;;;;29.00;15.80;;;12.00;99.90;;;;;;21057605;28;20399;-52
2022/02/20 11:30:56;;;;;;;33.67;17.38;;;11.20;99.90;;;;;;21069285;28;20549;-54
2022/02/20 11:41:11;;;;;;;42.97;24.75;;;10.80;99.90;;;;;;21072303;28;20032;-53
2022/02/20 11:51:17;;;;;;;30.85;17.35;;;10.80;99.90;;;;;;21045627;28;20117;-63
2022/02/20 12:01:20;;;;;;;31.42;17.95;;;10.70;99.90;;;;;;20964182;28;20037;-62
2022/02/20 12:11:28;;;;;;;31.23;17.52;;;11.20;99.90;;;;;;20996928;28;20049;-59
2022/02/20 12:21:31;;;;;;;28.40;15.65;;;10.90;99.90;;;;;;20974660;28;20337;-61
2022/02/20 12:32:03;;;;;;;32.67;17.92;;;10.50;99.90;;;;;;20957872;28;20513;-61
2022/02/20 12:42:06;;;;;;;35.63;19.45;;;10.70;99.90;;;;;;20943408;28;20036;-61
2022/02/20 12:52:10;;;;;;;41.97;23.02;;;11.10;99.90;;;;;;21015767;28;20048;-62
2022/02/20 13:02:13;;;;;;;43.50;23.60;;;10.90;99.90;;;;;;21075884;28;20068;-60
2022/02/20 13:12:20;;;;;;;43.90;24.52;;;10.80;99.90;;;;;;21074458;28;20078;-62
2022/02/20 13:22:29;;;;;;;48.92;25.17;;;10.90;99.90;;;;;;21073894;28;20036;-62
2022/02/20 13:32:32;;;;;;;43.78;24.35;;;10.80;99.90;;;;;;21073147;28;20475;-62
2022/02/20 13:42:35;;;;;;;44.55;23.15;;;10.80;99.90;;;;;;21071254;28;20070;-62
2022/02/20 13:52:44;;;;;;;42.40;23.20;;;10.50;99.90;;;;;;21070702;28;20449;-62
2022/02/20 14:02:47;;;;;;;48.78;25.73;;;10.00;99.90;;;;;;21070565;28;20035;-61
2022/02/20 14:12:50;;;;;;;49.13;24.63;;;9.40;99.90;;;;;;21068878;28;20089;-55
2022/02/20 14:22:54;;;;;;;43.85;22.20;;;8.70;99.90;;;;;;21062230;28;20036;-53
2022/02/20 14:33:00;;;;;;;53.10;27.00;;;8.70;99.90;;;;;;21050336;28;20333;-54
2022/02/20 14:43:02;;;;;;;53.35;27.13;;;8.70;99.90;;;;;;21045572;28;20036;-49
2022/02/20 14:53:06;;;;;;;60.95;31.08;;;8.80;99.90;;;;;;21053521;28;20044;-63
2022/02/20 15:03:08;;;;;;;68.28;33.85;;;8.10;99.90;;;;;;21060639;28;20503;-62
2022/02/20 15:13:11;;;;;;;74.32;36.15;;;7.60;99.90;;;;;;21057809;28;20039;-65
2022/02/20 15:23:13;;;;;;;81.68;38.97;;;7.30;99.90;;;;;;21066479;28;20040;-62
2022/02/20 15:33:18;;;;;;;78.65;39.13;;;6.80;99.90;;;;;;21048193;28;20428;-68
2022/02/20 15:43:21;;;;;;;70.13;34.38;;;6.60;99.90;;;;;;21065570;28;20036;-50
2022/02/20 15:53:25;;;;;;;59.95;29.83;;;6.30;99.90;;;;;;21055133;28;20044;-58
2022/02/20 16:03:28;;;;;;;70.70;31.70;;;5.80;99.90;;;;;;21066122;28;20448;-62
2022/02/20 16:13:32;;;;;;;74.55;34.17;;;5.30;99.90;;;;;;21058505;28;20048;-57
2022/02/20 16:23:34;;;;;;;64.97;31.10;;;4.80;99.90;;;;;;21078595;28;20028;-54
2022/02/20 16:33:42;;;;;;;72.90;34.03;;;4.30;99.90;;;;;;21076763;28;20036;-55
2022/02/20 16:43:45;;;;;;;50.20;23.70;;;4.10;99.90;;;;;;21076527;28;20093;-54
2022/02/20 16:53:48;;;;;;;48.58;21.30;;;3.80;99.90;;;;;;21075794;28;20071;-54
2022/02/20 17:03:51;;;;;;;44.92;19.83;;;3.50;99.90;;;;;;21075282;28;20028;-56
2022/02/20 17:13:54;;;;;;;40.45;19.67;;;3.30;99.90;;;;;;21073797;28;20032;-56
2022/02/20 17:24:00;;;;;;;43.80;20.45;;;3.00;99.90;;;;;;21073717;28;20556;-54
2022/02/20 17:34:06;;;;;;;39.92;17.42;;;2.80;99.90;;;;;;21075063;28;20105;-57
2022/02/20 17:44:10;;;;;;;34.63;15.65;;;2.80;99.90;;;;;;21040094;28;20032;-57
2022/02/20 17:54:13;;;;;;;33.83;15.45;;;2.80;99.90;;;;;;21071010;28;20039;-57
2022/02/20 18:04:16;;;;;;;27.65;13.90;;;2.90;99.90;;;;;;21054010;28;20032;-59
2022/02/20 18:14:19;;;;;;;41.65;18.52;;;3.00;99.90;;;;;;21067229;28;20065;-55
2022/02/20 18:24:22;;;;;;;44.47;21.05;;;2.90;99.90;;;;;;21069250;28;20455;-54
2022/02/20 18:34:27;;;;;;;54.40;24.63;;;2.80;99.90;;;;;;21037701;28;20096;-58
2022/02/20 18:44:30;;;;;;;45.60;20.98;;;2.50;99.90;;;;;;21067396;28;20032;-55
2022/02/20 18:54:34;;;;;;;35.83;16.30;;;2.40;99.90;;;;;;21066945;28;20105;-56
2022/02/20 19:04:37;;;;;;;30.83;14.25;;;2.40;99.90;;;;;;21066600;28;20040;-55
2022/02/20 19:14:39;;;;;;;25.00;12.75;;;2.60;99.90;;;;;;21065939;28;20127;-59
2022/02/20 19:24:43;;;;;;;37.78;17.38;;;2.70;99.90;;;;;;21065645;28;20032;-59
2022/02/20 19:34:46;;;;;;;40.22;17.70;;;2.80;99.90;;;;;;21064867;28;20044;-54
2022/02/20 19:44:49;;;;;;;32.72;15.23;;;2.90;99.90;;;;;;21064877;28;20097;-57
2022/02/20 19:54:51;;;;;;;7.00;4.28;;;3.20;99.90;;;;;;21077394;28;20097;-55
2022/02/20 20:04:54;;;;;;;7.28;3.45;;;5.20;99.90;;;;;;21080028;28;20044;-55
2022/02/20 20:14:56;;;;;;;38.67;18.33;;;6.30;97.40;;;;;;21079865;28;20040;-54
2022/02/20 20:24:59;;;;;;;46.40;21.55;;;4.80;99.90;;;;;;21078622;28;20556;-58
2022/02/20 20:35:06;;;;;;;56.63;24.10;;;3.50;99.90;;;;;;21077674;28;20059;-56
2022/02/20 20:45:08;;;;;;;63.85;29.13;;;3.00;99.90;;;;;;21076372;28;20077;-54
2022/02/20 20:55:11;;;;;;;61.60;24.90;;;2.80;99.90;;;;;;21075872;28;20568;-58
2022/02/20 21:05:14;;;;;;;47.00;22.02;;;2.50;99.90;;;;;;21075020;28;20090;-55
2022/02/20 21:15:17;;;;;;;82.07;34.72;;;2.10;99.90;;;;;;21074529;28;20028;-57
2022/02/20 21:25:20;;;;;;;96.45;40.28;;;1.80;99.90;;;;;;21074071;28;20036;-55
2022/02/20 21:35:23;;;;;;;66.90;30.08;;;1.80;99.90;;;;;;21073396;28;20372;-55
2022/02/20 21:45:26;;;;;;;10.30;5.15;;;2.10;99.90;;;;;;21071884;28;20093;-56
2022/02/20 21:55:28;;;;;;;32.05;15.05;;;2.20;99.90;;;;;;21070988;28;20097;-56
2022/02/20 22:05:31;;;;;;;1.25;0.50;;;3.10;99.90;;;;;;21070522;28;20032;-54
2022/02/20 22:15:34;;;;;;;0.98;0.40;;;3.40;99.90;;;;;;21070234;28;20387;-55
2022/02/20 22:25:37;;;;;;;1.00;0.32;;;4.10;98.00;;;;;;21070186;28;20450;-53
2022/02/20 22:35:40;;;;;;;0.10;0.10;;;4.40;95.40;;;;;;21068377;28;20688;-56
2022/02/20 22:45:43;;;;;;;1.02;0.30;;;4.90;92.60;;;;;;21067121;28;20040;-53
2022/02/20 22:55:45;;;;;;;2.75;0.40;;;5.00;93.30;;;;;;21066612;28;20096;-57
2022/02/20 23:05:49;;;;;;;2.90;1.10;;;5.10;91.50;;;;;;21066540;28;20040;-56
2022/02/20 23:15:52;;;;;;;43.25;20.85;;;5.50;92.60;;;;;;21067010;28;20089;-55
2022/02/20 23:25:55;;;;;;;48.38;22.08;;;5.20;99.90;;;;;;21074621;28;20040;-55
2022/02/20 23:36:01;;;;;;;33.83;15.85;;;4.40;99.90;;;;;;21082495;28;20069;-54
2022/02/20 23:46:04;;;;;;;57.90;27.15;;;3.60;99.90;;;;;;21081604;28;20031;-57
2022/02/20 23:56:07;;;;;;;25.90;11.38;;;3.70;99.90;;;;;;21064320;28;20503;-54
